Time;durP1;ratioP1;P1;durP2;ratioP2;P2;SDS_P1;SDS_P2;PMS_P1;PMS_P2;Temp;Humidity;BMP_temperature;BMP_pressure;BME280_temperature;BME280_humidity;BME280_pressure;Samples;Min_cycle;Max_cycle;Signal;HPM_P1;HPM_P2
2022/06/23 00:00:48;;;;;;;6.45;5.15;;;;;;;;;;2064677;28;20327;-55
2022/06/23 00:01:49;;;;;;;7.05;5.03;;;;;;;;;;2065235;28;20197;-53
2022/06/23 00:02:50;;;;;;;5.60;4.95;;;;;;;;;;2065691;28;20261;-52
2022/06/23 00:03:54;;;;;;;6.68;5.47;;;;;;;;;;2065397;28;20173;-54
2022/06/23 00:04:57;;;;;;;8.00;5.63;;;;;;;;;;2065145;28;20271;-57
2022/06/23 00:05:59;;;;;;;7.00;6.03;;;;;;;;;;2065922;28;20177;-56
2022/06/23 00:07:02;;;;;;;6.82;5.40;;;;;;;;;;2064929;28;20320;-56
2022/06/23 00:08:02;;;;;;;9.20;6.00;;;;;;;;;;2057408;28;20297;-56
2022/06/23 00:09:28;;;;;;;9.05;5.93;;;;;;;;;;2057404;28;20632;-56
2022/06/23 00:10:49;;;;;;;9.82;5.82;;;;;;;;;;2056101;28;20186;-56
2022/06/23 00:11:50;;;;;;;8.27;5.78;;;;;;;;;;2057265;28;20211;-55
2022/06/23 00:12:51;;;;;;;7.68;5.40;;;;;;;;;;2064095;28;20227;-54
2022/06/23 00:13:54;;;;;;;8.25;5.70;;;;;;;;;;2064610;28;20192;-57
2022/06/23 00:15:04;;;;;;;6.80;5.80;;;;;;;;;;2064410;28;20663;-54
2022/06/23 00:16:05;;;;;;;8.80;5.97;;;;;;;;;;2065967;28;20197;-55
2022/06/23 00:17:16;;;;;;;6.57;5.90;;;;;;;;;;2065410;28;20210;-52
2022/06/23 00:18:18;;;;;;;9.35;6.68;;;;;;;;;;2065741;28;20188;-56
2022/06/23 00:19:18;;;;;;;7.85;6.13;;;;;;;;;;2065551;28;20161;-56
2022/06/23 00:20:20;;;;;;;7.65;6.20;;;;;;;;;;2065467;28;20585;-60
2022/06/23 00:21:27;;;;;;;6.57;6.00;;;;;;;;;;2065305;28;20666;-57
2022/06/23 00:22:29;;;;;;;10.48;6.95;;;;;;;;;;2065578;28;20165;-55
2022/06/23 00:23:38;;;;;;;8.18;5.95;;;;;;;;;;2065505;28;20182;-57
2022/06/23 00:24:39;;;;;;;8.05;6.15;;;;;;;;;;2064497;28;20623;-54
2022/06/23 00:25:44;;;;;;;9.95;6.43;;;;;;;;;;2065343;28;20201;-56
2022/06/23 00:26:45;;;;;;;8.90;6.82;;;;;;;;;;2065442;28;20696;-55
2022/06/23 00:27:45;;;;;;;9.55;6.63;;;;;;;;;;2064967;28;20211;-54
2022/06/23 00:28:54;;;;;;;7.57;6.50;;;;;;;;;;2065597;28;20547;-57
2022/06/23 00:29:57;;;;;;;8.45;6.70;;;;;;;;;;2064978;28;20238;-56
2022/06/23 00:31:00;;;;;;;7.65;6.40;;;;;;;;;;2064738;28;20183;-56
2022/06/23 00:32:04;;;;;;;7.22;6.47;;;;;;;;;;2064550;28;20577;-57
2022/06/23 00:33:14;;;;;;;8.45;6.15;;;;;;;;;;2065597;28;20247;-55
2022/06/23 00:34:16;;;;;;;8.05;6.10;;;;;;;;;;2064468;28;20162;-54
2022/06/23 00:35:17;;;;;;;7.57;6.68;;;;;;;;;;2065536;28;20166;-55
2022/06/23 00:36:24;;;;;;;7.38;6.32;;;;;;;;;;2065271;28;20169;-57
2022/06/23 00:37:24;;;;;;;7.53;6.53;;;;;;;;;;2065326;28;20169;-57
2022/06/23 00:38:36;;;;;;;7.25;6.55;;;;;;;;;;2064271;28;20177;-55
2022/06/23 00:39:40;;;;;;;8.07;5.85;;;;;;;;;;2065006;28;20622;-55
2022/06/23 00:40:41;;;;;;;8.23;7.35;;;;;;;;;;2065408;28;20173;-56
2022/06/23 00:41:42;;;;;;;7.25;6.55;;;;;;;;;;2065201;28;20177;-55
2022/06/23 00:42:51;;;;;;;7.03;6.32;;;;;;;;;;2065319;28;20586;-57
2022/06/23 00:43:52;;;;;;;7.68;6.97;;;;;;;;;;2065066;28;20697;-60
2022/06/23 00:44:52;;;;;;;9.27;6.60;;;;;;;;;;2064529;28;20173;-56
2022/06/23 00:46:19;;;;;;;7.82;6.32;;;;;;;;;;2065397;28;20237;-57
2022/06/23 00:47:21;;;;;;;7.15;6.55;;;;;;;;;;2064330;28;20682;-55
2022/06/23 00:48:22;;;;;;;7.75;6.35;;;;;;;;;;2065285;28;20302;-56
2022/06/23 00:49:22;;;;;;;8.43;6.82;;;;;;;;;;2065928;28;20240;-54
2022/06/23 00:50:25;;;;;;;7.15;6.45;;;;;;;;;;2064038;28;20576;-55
2022/06/23 00:51:32;;;;;;;10.13;6.97;;;;;;;;;;2065712;28;20181;-54
2022/06/23 00:52:55;;;;;;;7.68;6.97;;;;;;;;;;2065222;28;20201;-55
2022/06/23 00:53:58;;;;;;;9.35;6.50;;;;;;;;;;2061929;28;20662;-56
2022/06/23 00:55:01;;;;;;;7.72;6.40;;;;;;;;;;2064851;28;20161;-54
2022/06/23 00:56:01;;;;;;;7.95;6.28;;;;;;;;;;2065934;28;20166;-55
2022/06/23 00:57:09;;;;;;;7.18;6.25;;;;;;;;;;2064969;28;20639;-56
2022/06/23 00:58:28;;;;;;;7.50;6.75;;;;;;;;;;2065158;28;20203;-61
2022/06/23 00:59:32;;;;;;;7.55;6.70;;;;;;;;;;2065443;28;20181;-52
2022/06/23 01:00:36;;;;;;;7.63;6.70;;;;;;;;;;2064952;28;20258;-56
2022/06/23 01:01:42;;;;;;;7.47;6.78;;;;;;;;;;2064964;28;20217;-54
2022/06/23 01:02:44;;;;;;;7.38;6.47;;;;;;;;;;2064698;28;20173;-53
2022/06/23 01:03:58;;;;;;;8.85;7.97;;;;;;;;;;2065255;28;20178;-56
2022/06/23 01:05:07;;;;;;;7.75;7.00;;;;;;;;;;2057130;28;20202;-55
2022/06/23 01:06:07;;;;;;;8.32;6.65;;;;;;;;;;2057283;28;20707;-55
2022/06/23 01:07:36;;;;;;;8.18;6.68;;;;;;;;;;2075030;23;21360;-57
2022/06/23 01:08:44;;;;;;;11.38;7.20;;;;;;;;;;2061798;28;20212;-57
2022/06/23 01:09:44;;;;;;;10.52;6.82;;;;;;;;;;2063861;28;20177;-57
2022/06/23 01:11:00;;;;;;;7.43;6.70;;;;;;;;;;2078978;28;20732;-60
2022/06/23 01:12:06;;;;;;;8.43;7.10;;;;;;;;;;2080419;28;20179;-57
2022/06/23 01:13:12;;;;;;;9.75;6.65;;;;;;;;;;2081183;28;20153;-55
2022/06/23 01:14:18;;;;;;;12.20;7.50;;;;;;;;;;2080572;28;20613;-53
2022/06/23 01:15:28;;;;;;;7.50;6.80;;;;;;;;;;2080625;28;20214;-54
2022/06/23 01:16:32;;;;;;;7.75;6.97;;;;;;;;;;2080780;28;20168;-58
2022/06/23 01:17:45;;;;;;;8.90;7.03;;;;;;;;;;2073230;28;20625;-59
2022/06/23 01:18:58;;;;;;;8.52;6.93;;;;;;;;;;2072900;28;20141;-54
2022/06/23 01:19:58;;;;;;;9.98;7.28;;;;;;;;;;2072292;28;20208;-55
2022/06/23 01:21:22;;;;;;;8.73;7.15;;;;;;;;;;2068286;28;20223;-57
2022/06/23 01:22:28;;;;;;;9.75;7.32;;;;;;;;;;2067772;28;20250;-56
2022/06/23 01:23:35;;;;;;;6.90;6.30;;;;;;;;;;2081633;28;20187;-56
2022/06/23 01:24:41;;;;;;;8.02;7.13;;;;;;;;;;2080651;28;20223;-60
2022/06/23 01:25:49;;;;;;;8.48;7.18;;;;;;;;;;2077872;28;20191;-53
2022/06/23 01:26:49;;;;;;;8.85;7.95;;;;;;;;;;2074466;28;20157;-54
2022/06/23 01:28:02;;;;;;;9.02;7.70;;;;;;;;;;2074257;28;20796;-55
2022/06/23 01:29:15;;;;;;;9.30;7.32;;;;;;;;;;2074677;28;20168;-56
2022/06/23 01:30:18;;;;;;;7.75;6.95;;;;;;;;;;2075470;28;20169;-56
2022/06/23 01:31:22;;;;;;;9.00;7.13;;;;;;;;;;2074509;28;20180;-53
2022/06/23 01:32:32;;;;;;;8.73;7.28;;;;;;;;;;2074520;28;20306;-54
2022/06/23 01:33:41;;;;;;;9.10;7.60;;;;;;;;;;2073490;28;20181;-58
2022/06/23 01:34:48;;;;;;;12.80;7.00;;;;;;;;;;2080347;28;20182;-58
2022/06/23 01:36:08;;;;;;;7.82;6.97;;;;;;;;;;2082786;28;20176;-55
2022/06/23 01:37:15;;;;;;;7.18;6.57;;;;;;;;;;2065197;28;20193;-53
2022/06/23 01:38:24;;;;;;;7.18;6.55;;;;;;;;;;2080790;28;20192;-58
2022/06/23 01:39:24;;;;;;;9.30;7.10;;;;;;;;;;2073737;28;20176;-55
2022/06/23 01:40:32;;;;;;;8.10;7.30;;;;;;;;;;2073507;28;20657;-52
2022/06/23 01:41:32;;;;;;;8.90;7.55;;;;;;;;;;2077878;28;20192;-55
2022/06/23 01:42:55;;;;;;;8.10;7.30;;;;;;;;;;2081753;28;20308;-53
2022/06/23 01:43:59;;;;;;;8.40;7.07;;;;;;;;;;2066053;28;20193;-54
2022/06/23 01:45:02;;;;;;;7.10;6.53;;;;;;;;;;2075517;28;20177;-53
2022/06/23 01:46:08;;;;;;;7.90;7.10;;;;;;;;;;2079770;28;20180;-58
2022/06/23 01:47:30;;;;;;;8.15;7.38;;;;;;;;;;2082064;28;20293;-52
2022/06/23 01:48:52;;;;;;;8.15;7.13;;;;;;;;;;2082066;28;20223;-53
2022/06/23 01:49:56;;;;;;;11.05;6.80;;;;;;;;;;2081827;28;20618;-55
2022/06/23 01:50:57;;;;;;;7.90;6.82;;;;;;;;;;2082360;28;20592;-58
2022/06/23 01:52:11;;;;;;;8.00;7.18;;;;;;;;;;2082578;28;20246;-57
2022/06/23 01:53:17;;;;;;;10.43;7.57;;;;;;;;;;2082418;28;20660;-54
2022/06/23 01:54:20;;;;;;;9.55;7.03;;;;;;;;;;2081536;28;20178;-55
2022/06/23 01:55:24;;;;;;;7.88;7.00;;;;;;;;;;2082240;28;20651;-56
2022/06/23 01:56:41;;;;;;;10.93;7.72;;;;;;;;;;2082530;28;20163;-53
2022/06/23 01:57:44;;;;;;;8.48;7.68;;;;;;;;;;2082449;28;20187;-54
2022/06/23 01:58:55;;;;;;;9.93;7.22;;;;;;;;;;2081831;28;20184;-58
2022/06/23 02:00:08;;;;;;;7.95;7.20;;;;;;;;;;2079110;28;20712;-56
2022/06/23 02:01:12;;;;;;;10.20;7.50;;;;;;;;;;2074455;28;20161;-54
2022/06/23 02:02:31;;;;;;;8.32;7.25;;;;;;;;;;2073619;28;20176;-55
2022/06/23 02:03:38;;;;;;;9.32;7.18;;;;;;;;;;2073509;28;20191;-55
2022/06/23 02:04:39;;;;;;;9.60;7.35;;;;;;;;;;2077283;28;20165;-57
2022/06/23 02:05:54;;;;;;;9.25;7.88;;;;;;;;;;2083250;28;20184;-59
2022/06/23 02:06:56;;;;;;;8.10;7.28;;;;;;;;;;2083112;28;20709;-55
2022/06/23 02:08:17;;;;;;;9.90;7.80;;;;;;;;;;2083587;28;20188;-55
2022/06/23 02:09:20;;;;;;;8.30;7.50;;;;;;;;;;2065545;28;20190;-57
2022/06/23 02:10:20;;;;;;;9.70;8.18;;;;;;;;;;2074544;28;20177;-59
2022/06/23 02:11:33;;;;;;;10.57;8.38;;;;;;;;;;2074707;28;20193;-54
2022/06/23 02:12:44;;;;;;;8.45;7.60;;;;;;;;;;2074333;28;20203;-59
2022/06/23 02:13:51;;;;;;;9.75;8.25;;;;;;;;;;2074431;28;20681;-58
2022/06/23 02:14:58;;;;;;;9.13;7.90;;;;;;;;;;2073566;28;20175;-60
2022/06/23 02:16:07;;;;;;;11.73;8.52;;;;;;;;;;2079581;28;20187;-56
2022/06/23 02:17:16;;;;;;;9.02;8.23;;;;;;;;;;2081664;28;20184;-54
2022/06/23 02:18:23;;;;;;;10.00;7.82;;;;;;;;;;2081603;28;20168;-57
2022/06/23 02:19:41;;;;;;;8.45;7.65;;;;;;;;;;2081509;28;20196;-54
2022/06/23 02:20:57;;;;;;;8.82;8.02;;;;;;;;;;2074121;28;20184;-55
2022/06/23 02:22:04;;;;;;;10.27;7.50;;;;;;;;;;2074097;28;20176;-57
2022/06/23 02:23:10;;;;;;;8.00;7.30;;;;;;;;;;2074315;28;20172;-52
2022/06/23 02:24:10;;;;;;;12.85;8.68;;;;;;;;;;2073302;28;20189;-53
2022/06/23 02:25:13;;;;;;;9.70;7.78;;;;;;;;;;2074505;28;20169;-56
2022/06/23 02:26:26;;;;;;;9.40;8.18;;;;;;;;;;2082538;28;20226;-57
2022/06/23 02:27:46;;;;;;;9.40;7.78;;;;;;;;;;2081838;28;20265;-55
2022/06/23 02:28:54;;;;;;;12.38;8.20;;;;;;;;;;2082287;28;20210;-56
2022/06/23 02:30:03;;;;;;;8.55;7.78;;;;;;;;;;2081687;28;20161;-55
2022/06/23 02:31:09;;;;;;;11.63;8.73;;;;;;;;;;2074957;28;20268;-60
2022/06/23 02:32:09;;;;;;;9.32;8.32;;;;;;;;;;2074375;28;20663;-52
2022/06/23 02:33:23;;;;;;;9.13;8.10;;;;;;;;;;2073725;28;20176;-54
2022/06/23 02:34:34;;;;;;;8.18;7.40;;;;;;;;;;2072523;28;20522;-56
2022/06/23 02:35:41;;;;;;;9.88;7.57;;;;;;;;;;2081407;28;20172;-54
2022/06/23 02:36:41;;;;;;;11.48;8.57;;;;;;;;;;2082122;28;20172;-53
2022/06/23 02:37:53;;;;;;;9.52;7.93;;;;;;;;;;2082654;28;20188;-56
2022/06/23 02:38:55;;;;;;;10.80;9.38;;;;;;;;;;2082339;28;20176;-57
2022/06/23 02:39:56;;;;;;;9.45;8.55;;;;;;;;;;2082578;28;20239;-57
2022/06/23 02:41:04;;;;;;;10.10;8.80;;;;;;;;;;2073593;28;20177;-53
2022/06/23 02:42:14;;;;;;;10.38;9.43;;;;;;;;;;2073534;28;20543;-57
2022/06/23 02:43:25;;;;;;;9.07;7.63;;;;;;;;;;2074024;28;20256;-58
2022/06/23 02:44:34;;;;;;;10.35;8.30;;;;;;;;;;2073379;28;20251;-58
2022/06/23 02:45:53;;;;;;;9.57;8.60;;;;;;;;;;2076627;28;20258;-53
2022/06/23 02:46:54;;;;;;;10.50;8.68;;;;;;;;;;2081264;28;20180;-51
2022/06/23 02:48:00;;;;;;;8.43;7.63;;;;;;;;;;2081650;28;20180;-54
2022/06/23 02:49:19;;;;;;;9.07;8.18;;;;;;;;;;2082589;28;20183;-54
2022/06/23 02:50:29;;;;;;;8.52;7.70;;;;;;;;;;2075856;28;20161;-55
2022/06/23 02:51:41;;;;;;;11.05;8.50;;;;;;;;;;2082307;28;20169;-55
2022/06/23 02:53:07;;;;;;;13.07;8.98;;;;;;;;;;2084988;28;20675;-54
2022/06/23 02:54:10;;;;;;;8.88;7.82;;;;;;;;;;2080277;28;20169;-59
2022/06/23 02:55:29;;;;;;;9.02;7.85;;;;;;;;;;2077176;28;20204;-54
2022/06/23 02:56:35;;;;;;;9.52;7.63;;;;;;;;;;2084240;28;20172;-53
2022/06/23 02:57:51;;;;;;;8.20;7.50;;;;;;;;;;2084216;28;20196;-56
2022/06/23 02:58:57;;;;;;;13.30;8.25;;;;;;;;;;2083901;28;20222;-55
2022/06/23 03:00:00;;;;;;;9.25;8.32;;;;;;;;;;2082674;28;20173;-55
2022/06/23 03:01:03;;;;;;;12.23;9.07;;;;;;;;;;2084279;28;20164;-60
2022/06/23 03:02:08;;;;;;;9.05;8.25;;;;;;;;;;2083688;28;20192;-49
2022/06/23 03:03:14;;;;;;;11.38;8.27;;;;;;;;;;2082893;28;20168;-54
2022/06/23 03:04:23;;;;;;;10.05;8.68;;;;;;;;;;2081172;28;20204;-59
2022/06/23 03:05:56;;;;;;;10.50;8.68;;;;;;;;;;2081952;28;20324;-55
2022/06/23 03:06:59;;;;;;;8.85;7.95;;;;;;;;;;2064052;28;20178;-56
2022/06/23 03:08:26;;;;;;;10.27;9.02;;;;;;;;;;2077017;28;20238;-57
2022/06/23 03:09:29;;;;;;;11.10;8.68;;;;;;;;;;2079892;28;20257;-57
2022/06/23 03:10:43;;;;;;;8.18;7.38;;;;;;;;;;2076399;28;20169;-56
2022/06/23 03:11:56;;;;;;;10.60;9.35;;;;;;;;;;2073155;28;20251;-54
2022/06/23 03:13:07;;;;;;;9.63;8.23;;;;;;;;;;2073986;28;20238;-54
2022/06/23 03:14:13;;;;;;;10.43;9.38;;;;;;;;;;2073196;28;20177;-55
2022/06/23 03:15:16;;;;;;;9.02;8.13;;;;;;;;;;2074618;28;20168;-53
2022/06/23 03:16:16;;;;;;;8.60;7.75;;;;;;;;;;2081052;28;20242;-57
2022/06/23 03:17:16;;;;;;;9.75;8.80;;;;;;;;;;2081258;28;20259;-54
2022/06/23 03:18:35;;;;;;;12.30;8.80;;;;;;;;;;2081827;28;20234;-52
2022/06/23 03:19:42;;;;;;;9.13;8.23;;;;;;;;;;2082714;28;20184;-58
2022/06/23 03:20:42;;;;;;;12.38;8.88;;;;;;;;;;2076041;28;20172;-50
2022/06/23 03:21:45;;;;;;;10.68;8.10;;;;;;;;;;2074078;28;20184;-55
2022/06/23 03:23:00;;;;;;;8.95;8.10;;;;;;;;;;2073477;28;20173;-57
2022/06/23 03:24:06;;;;;;;9.20;8.30;;;;;;;;;;2075932;28;20183;-54
2022/06/23 03:25:15;;;;;;;8.68;7.85;;;;;;;;;;2081513;28;20183;-57
2022/06/23 03:26:33;;;;;;;8.43;7.55;;;;;;;;;;2073836;28;20173;-56
2022/06/23 03:27:47;;;;;;;11.38;9.02;;;;;;;;;;2073956;28;20231;-57
2022/06/23 03:28:48;;;;;;;10.05;8.27;;;;;;;;;;2073283;28;20227;-54
2022/06/23 03:29:55;;;;;;;8.63;7.80;;;;;;;;;;2073279;28;20173;-56
2022/06/23 03:31:00;;;;;;;9.48;8.55;;;;;;;;;;2072893;28;20184;-52
2022/06/23 03:32:14;;;;;;;10.57;8.55;;;;;;;;;;2073752;28;20161;-53
2022/06/23 03:33:18;;;;;;;9.60;8.60;;;;;;;;;;2073547;28;20195;-52
2022/06/23 03:34:24;;;;;;;11.70;8.55;;;;;;;;;;2073711;28;20195;-56
2022/06/23 03:35:28;;;;;;;10.43;8.57;;;;;;;;;;2077234;28;20205;-53
2022/06/23 03:36:41;;;;;;;9.77;8.40;;;;;;;;;;2073996;28;20625;-56
2022/06/23 03:38:00;;;;;;;9.23;8.05;;;;;;;;;;2073990;28;20572;-55
2022/06/23 03:41:51;;;;;;;9.65;8.52;;;;;;;;;;2073279;28;20202;-58
2022/06/23 03:42:54;;;;;;;9.20;8.27;;;;;;;;;;2073707;28;20176;-58
2022/06/23 03:43:58;;;;;;;9.40;8.50;;;;;;;;;;2073434;28;20208;-59
2022/06/23 03:45:10;;;;;;;9.00;7.85;;;;;;;;;;2073484;28;20659;-57
2022/06/23 03:46:16;;;;;;;11.07;8.45;;;;;;;;;;2073109;28;20177;-58
2022/06/23 03:47:39;;;;;;;10.90;8.43;;;;;;;;;;2073103;28;20189;-56
2022/06/23 03:48:44;;;;;;;9.02;8.13;;;;;;;;;;2064348;28;20228;-54
2022/06/23 03:49:53;;;;;;;10.98;8.05;;;;;;;;;;2064009;28;20244;-55
2022/06/23 03:50:54;;;;;;;9.13;8.23;;;;;;;;;;2070049;28;20636;-58
2022/06/23 03:51:57;;;;;;;8.63;7.72;;;;;;;;;;2074235;28;20196;-57
2022/06/23 03:52:59;;;;;;;12.55;9.23;;;;;;;;;;2074864;28;20177;-53
2022/06/23 03:54:02;;;;;;;9.13;8.00;;;;;;;;;;2072917;28;20196;-51
2022/06/23 03:55:05;;;;;;;10.15;8.93;;;;;;;;;;2073122;28;20199;-56
2022/06/23 03:56:10;;;;;;;9.25;8.30;;;;;;;;;;2072722;28;20227;-56
2022/06/23 03:57:14;;;;;;;9.18;8.38;;;;;;;;;;2073263;28;20201;-56
2022/06/23 03:58:17;;;;;;;8.55;7.75;;;;;;;;;;2065158;28;20296;-56
2022/06/23 03:59:21;;;;;;;9.98;8.75;;;;;;;;;;2073148;28;20605;-56
2022/06/23 04:00:24;;;;;;;9.93;8.23;;;;;;;;;;2072805;28;20163;-54
2022/06/23 04:01:41;;;;;;;9.35;8.43;;;;;;;;;;2081354;28;20173;-54
2022/06/23 04:02:43;;;;;;;10.40;8.00;;;;;;;;;;2082054;28;20176;-52
2022/06/23 04:03:59;;;;;;;9.77;8.40;;;;;;;;;;2081850;28;20629;-56
2022/06/23 04:05:12;;;;;;;9.40;8.43;;;;;;;;;;2081758;28;20687;-58
2022/06/23 04:06:12;;;;;;;11.07;8.68;;;;;;;;;;2082625;28;20167;-58
2022/06/23 04:07:27;;;;;;;9.85;8.88;;;;;;;;;;2082262;28;20575;-58
2022/06/23 04:08:32;;;;;;;8.82;7.85;;;;;;;;;;2079406;28;20200;-56
2022/06/23 04:09:36;;;;;;;11.70;7.95;;;;;;;;;;2075724;28;20180;-52
2022/06/23 04:10:39;;;;;;;8.35;7.55;;;;;;;;;;2077112;28;20622;-54
2022/06/23 04:11:55;;;;;;;9.80;8.35;;;;;;;;;;2083257;28;20255;-58
2022/06/23 04:12:57;;;;;;;7.88;7.05;;;;;;;;;;2082760;28;20187;-54
2022/06/23 04:14:00;;;;;;;8.98;8.10;;;;;;;;;;2082259;28;20168;-50
2022/06/23 04:15:10;;;;;;;10.35;7.60;;;;;;;;;;2083041;28;20164;-59
2022/06/23 04:16:11;;;;;;;9.30;8.15;;;;;;;;;;2080246;28;20180;-55
2022/06/23 04:17:32;;;;;;;9.73;7.88;;;;;;;;;;2079421;28;20192;-53
2022/06/23 04:18:32;;;;;;;9.07;8.15;;;;;;;;;;2066081;28;20192;-54
2022/06/23 04:19:34;;;;;;;10.52;8.23;;;;;;;;;;2074061;28;20737;-54
2022/06/23 04:20:37;;;;;;;9.52;8.52;;;;;;;;;;2073809;28;20262;-54
2022/06/23 04:21:40;;;;;;;8.32;7.45;;;;;;;;;;2074321;28;20243;-60
2022/06/23 04:22:44;;;;;;;9.48;7.90;;;;;;;;;;2081224;28;20613;-55
2022/06/23 04:23:52;;;;;;;9.07;8.25;;;;;;;;;;2082088;28;20207;-55
2022/06/23 04:24:55;;;;;;;10.68;8.60;;;;;;;;;;2081207;28;20223;-54
2022/06/23 04:26:04;;;;;;;9.52;8.48;;;;;;;;;;2081946;28;20184;-56
2022/06/23 04:27:08;;;;;;;8.68;7.88;;;;;;;;;;2077812;28;20198;-58
2022/06/23 04:28:17;;;;;;;10.48;8.00;;;;;;;;;;2079338;28;20330;-58
2022/06/23 04:29:24;;;;;;;9.10;8.20;;;;;;;;;;2082227;28;20160;-54
2022/06/23 04:30:36;;;;;;;8.68;7.88;;;;;;;;;;2082994;28;20569;-57
2022/06/23 04:31:38;;;;;;;9.13;8.13;;;;;;;;;;2083242;28;20184;-55
2022/06/23 04:32:38;;;;;;;12.05;8.38;;;;;;;;;;2082214;28;20207;-56
2022/06/23 04:33:39;;;;;;;11.15;8.25;;;;;;;;;;2081924;28;20172;-53
2022/06/23 04:34:48;;;;;;;10.27;9.20;;;;;;;;;;2081237;28;20181;-54
2022/06/23 04:35:50;;;;;;;10.00;8.98;;;;;;;;;;2083463;28;20343;-59
2022/06/23 04:36:51;;;;;;;9.23;8.30;;;;;;;;;;2083520;28;20184;-60
2022/06/23 04:37:54;;;;;;;9.05;8.18;;;;;;;;;;2077702;28;20171;-56
2022/06/23 04:39:01;;;;;;;13.27;9.15;;;;;;;;;;2075645;28;20180;-52
2022/06/23 04:40:22;;;;;;;10.35;9.18;;;;;;;;;;2081917;28;20180;-56
2022/06/23 04:41:27;;;;;;;11.32;8.68;;;;;;;;;;2082628;28;20184;-58
2022/06/23 04:42:27;;;;;;;9.65;8.70;;;;;;;;;;2082528;28;20168;-54
2022/06/23 04:43:28;;;;;;;9.77;8.32;;;;;;;;;;2081812;28;20176;-54
2022/06/23 04:44:29;;;;;;;9.23;8.02;;;;;;;;;;2080874;28;20186;-55
2022/06/23 04:45:34;;;;;;;10.57;8.82;;;;;;;;;;2080135;28;20583;-55
2022/06/23 04:46:37;;;;;;;12.00;9.63;;;;;;;;;;2079801;28;20172;-52
2022/06/23 04:47:40;;;;;;;9.55;8.52;;;;;;;;;;2077615;28;20559;-58
2022/06/23 04:48:59;;;;;;;9.77;8.75;;;;;;;;;;2079442;28;20176;-54
2022/06/23 04:50:03;;;;;;;9.13;8.25;;;;;;;;;;2074047;28;20180;-54
2022/06/23 04:51:03;;;;;;;10.65;8.55;;;;;;;;;;2072779;28;20240;-57
2022/06/23 04:52:05;;;;;;;8.50;7.72;;;;;;;;;;2072657;28;20169;-53
2022/06/23 04:53:06;;;;;;;9.38;8.48;;;;;;;;;;2073775;28;20245;-57
2022/06/23 04:54:12;;;;;;;9.18;8.30;;;;;;;;;;2076199;28;20169;-52
2022/06/23 04:55:13;;;;;;;8.75;7.80;;;;;;;;;;2073384;28;20208;-53
2022/06/23 04:56:13;;;;;;;9.98;8.20;;;;;;;;;;2073513;28;20878;-55
2022/06/23 04:57:17;;;;;;;9.82;8.10;;;;;;;;;;2078433;28;20196;-56
2022/06/23 04:58:21;;;;;;;9.75;8.73;;;;;;;;;;2077667;28;20184;-54
2022/06/23 04:59:40;;;;;;;10.25;9.20;;;;;;;;;;2083744;28;20203;-57
2022/06/23 05:00:51;;;;;;;9.80;8.48;;;;;;;;;;2076412;28;20180;-52
2022/06/23 05:01:53;;;;;;;9.30;8.48;;;;;;;;;;2081083;28;20195;-57
2022/06/23 05:02:55;;;;;;;9.38;7.95;;;;;;;;;;2079681;28;20172;-52
2022/06/23 05:03:57;;;;;;;8.68;7.97;;;;;;;;;;2082589;28;20555;-58
2022/06/23 05:05:03;;;;;;;9.98;8.60;;;;;;;;;;2082556;28;20536;-53
2022/06/23 05:06:09;;;;;;;10.52;8.18;;;;;;;;;;2081078;28;20174;-55
2022/06/23 05:07:18;;;;;;;10.25;7.57;;;;;;;;;;2073938;28;20274;-56
2022/06/23 05:08:25;;;;;;;9.20;7.50;;;;;;;;;;2074545;28;20212;-53
2022/06/23 05:09:30;;;;;;;8.45;7.65;;;;;;;;;;2074792;28;20165;-55
2022/06/23 05:10:33;;;;;;;7.75;7.05;;;;;;;;;;2074658;28;20191;-52
2022/06/23 05:11:39;;;;;;;9.02;7.68;;;;;;;;;;2074619;28;20254;-55
2022/06/23 05:12:42;;;;;;;9.02;7.47;;;;;;;;;;2077418;28;20251;-54
2022/06/23 05:13:54;;;;;;;9.10;7.50;;;;;;;;;;2082964;28;20180;-56
2022/06/23 05:15:02;;;;;;;9.30;7.68;;;;;;;;;;2078293;28;20227;-58
2022/06/23 05:16:02;;;;;;;8.68;7.25;;;;;;;;;;2082236;28;20259;-56
2022/06/23 05:17:21;;;;;;;9.57;7.80;;;;;;;;;;2081208;28;20677;-56
2022/06/23 05:18:27;;;;;;;9.60;8.00;;;;;;;;;;2082999;28;20671;-56
2022/06/23 05:19:30;;;;;;;12.68;8.05;;;;;;;;;;2077179;28;20215;-57
2022/06/23 05:20:33;;;;;;;11.75;8.30;;;;;;;;;;2075038;28;20173;-56
2022/06/23 05:21:39;;;;;;;9.05;7.93;;;;;;;;;;2074928;28;20676;-54
2022/06/23 05:22:41;;;;;;;11.50;7.38;;;;;;;;;;2074317;28;20574;-54
2022/06/23 05:23:44;;;;;;;10.02;8.05;;;;;;;;;;2073439;28;20168;-55
2022/06/23 05:24:46;;;;;;;14.35;8.43;;;;;;;;;;2081716;28;20195;-58
2022/06/23 05:25:48;;;;;;;10.20;8.15;;;;;;;;;;2077597;28;20193;-56
2022/06/23 05:26:59;;;;;;;10.95;8.00;;;;;;;;;;2075052;28;20165;-54
2022/06/23 05:28:02;;;;;;;12.50;8.90;;;;;;;;;;2074647;28;20189;-55
2022/06/23 05:29:07;;;;;;;13.75;8.70;;;;;;;;;;2074834;28;20208;-55
2022/06/23 05:30:19;;;;;;;11.52;8.30;;;;;;;;;;2074610;28;20255;-56
2022/06/23 05:31:22;;;;;;;14.70;9.75;;;;;;;;;;2074685;28;20603;-56
2022/06/23 05:32:25;;;;;;;13.68;8.05;;;;;;;;;;2082607;28;20177;-53
2022/06/23 05:33:29;;;;;;;11.82;7.82;;;;;;;;;;2082770;28;20169;-54
2022/06/23 05:34:31;;;;;;;9.40;8.38;;;;;;;;;;2082224;28;20169;-55
2022/06/23 05:35:36;;;;;;;9.18;7.68;;;;;;;;;;2082795;28;20189;-56
2022/06/23 05:36:50;;;;;;;10.70;7.65;;;;;;;;;;2082900;28;20481;-55
2022/06/23 05:38:09;;;;;;;9.15;7.72;;;;;;;;;;2082790;28;20591;-54
2022/06/23 05:39:21;;;;;;;9.82;7.00;;;;;;;;;;2082764;28;20605;-57
2022/06/23 05:40:28;;;;;;;8.27;6.65;;;;;;;;;;2082041;28;20177;-55
2022/06/23 05:41:32;;;;;;;8.23;7.53;;;;;;;;;;2074095;28;20180;-58
2022/06/23 05:42:32;;;;;;;8.27;6.40;;;;;;;;;;2074043;28;20266;-56
2022/06/23 05:43:39;;;;;;;12.25;7.03;;;;;;;;;;2082451;28;20176;-55
2022/06/23 05:44:58;;;;;;;10.20;7.50;;;;;;;;;;2081634;28;20231;-53
2022/06/23 05:46:01;;;;;;;8.50;7.15;;;;;;;;;;2078681;28;20519;-52
2022/06/23 05:47:02;;;;;;;8.25;7.00;;;;;;;;;;2079974;28;20208;-54
2022/06/23 05:48:04;;;;;;;9.70;6.97;;;;;;;;;;2081840;28;20224;-56
2022/06/23 05:49:11;;;;;;;14.88;7.28;;;;;;;;;;2083239;28;20164;-59
2022/06/23 05:50:14;;;;;;;9.07;7.05;;;;;;;;;;2077837;28;20161;-53
2022/06/23 05:51:18;;;;;;;12.63;7.00;;;;;;;;;;2074511;28;20731;-56
2022/06/23 05:52:25;;;;;;;6.65;6.00;;;;;;;;;;2065699;28;20268;-54
2022/06/23 05:53:29;;;;;;;9.20;6.20;;;;;;;;;;2066671;28;20244;-53
2022/06/23 05:54:44;;;;;;;10.07;6.70;;;;;;;;;;2073488;28;20162;-55
2022/06/23 05:55:48;;;;;;;6.70;6.10;;;;;;;;;;2079464;28;20175;-58
2022/06/23 05:56:48;;;;;;;7.80;6.43;;;;;;;;;;2081980;28;20525;-55
2022/06/23 05:57:57;;;;;;;7.75;6.70;;;;;;;;;;2081870;28;20320;-53
2022/06/23 05:59:14;;;;;;;7.82;6.30;;;;;;;;;;2081822;28;20169;-53
2022/06/23 06:00:22;;;;;;;9.00;6.57;;;;;;;;;;2081998;28;20240;-55
2022/06/23 06:01:29;;;;;;;6.97;6.40;;;;;;;;;;2082348;28;20611;-55
2022/06/23 06:02:47;;;;;;;8.25;6.30;;;;;;;;;;2082580;28;20172;-55
2022/06/23 06:03:56;;;;;;;8.18;6.80;;;;;;;;;;2081784;28;20633;-57
2022/06/23 06:04:58;;;;;;;9.65;6.93;;;;;;;;;;2081435;28;20251;-55
2022/06/23 06:06:01;;;;;;;7.22;5.97;;;;;;;;;;2078490;28;20161;-54
2022/06/23 06:07:02;;;;;;;8.77;6.15;;;;;;;;;;2079366;28;20191;-54
2022/06/23 06:08:14;;;;;;;6.18;5.65;;;;;;;;;;2076183;28;20157;-55
2022/06/23 06:10:36;;;;;;;6.07;5.47;;;;;;;;;;2073397;28;20197;-53
2022/06/23 06:11:38;;;;;;;8.50;6.50;;;;;;;;;;2074508;28;20500;-53
2022/06/23 06:12:40;;;;;;;10.80;6.15;;;;;;;;;;2074313;28;20208;-56
2022/06/23 06:13:41;;;;;;;7.32;5.07;;;;;;;;;;2073996;28;20172;-56
2022/06/23 06:14:44;;;;;;;7.78;5.70;;;;;;;;;;2073568;28;20250;-52
2022/06/23 06:15:47;;;;;;;6.60;5.72;;;;;;;;;;2079063;28;20173;-55
2022/06/23 06:16:47;;;;;;;7.70;5.85;;;;;;;;;;2082356;28;20176;-57
2022/06/23 06:17:49;;;;;;;5.97;5.40;;;;;;;;;;2081671;28;20192;-54
2022/06/23 06:18:50;;;;;;;6.07;5.47;;;;;;;;;;2082109;28;20168;-53
2022/06/23 06:19:52;;;;;;;5.85;5.15;;;;;;;;;;2082371;28;20536;-55
2022/06/23 06:20:53;;;;;;;6.45;5.80;;;;;;;;;;2082866;28;20568;-55
2022/06/23 06:21:56;;;;;;;5.90;5.40;;;;;;;;;;2082145;28;20173;-53
2022/06/23 06:23:28;;;;;;;8.30;5.72;;;;;;;;;;2082516;28;20199;-55
2022/06/23 06:24:33;;;;;;;7.28;5.88;;;;;;;;;;2056655;28;20178;-51
2022/06/23 06:25:37;;;;;;;7.15;5.75;;;;;;;;;;2072281;28;20173;-53
2022/06/23 06:26:41;;;;;;;11.20;7.20;;;;;;;;;;2079539;28;20255;-55
2022/06/23 06:27:41;;;;;;;6.18;5.63;;;;;;;;;;2078066;28;20236;-55
2022/06/23 06:28:41;;;;;;;13.00;6.15;;;;;;;;;;2077858;28;20199;-54
2022/06/23 06:29:43;;;;;;;11.32;6.28;;;;;;;;;;2076724;28;20177;-54
2022/06/23 06:30:53;;;;;;;7.70;5.82;;;;;;;;;;2078382;28;20169;-56
2022/06/23 06:31:57;;;;;;;9.68;5.75;;;;;;;;;;2078508;28;20239;-53
2022/06/23 06:32:57;;;;;;;9.90;5.90;;;;;;;;;;2077444;28;20204;-57
2022/06/23 06:34:09;;;;;;;8.13;5.45;;;;;;;;;;2079179;28;20176;-54
2022/06/23 06:35:16;;;;;;;5.93;5.30;;;;;;;;;;2078569;28;20168;-56
2022/06/23 06:36:23;;;;;;;7.05;5.47;;;;;;;;;;2077608;28;20501;-53
2022/06/23 06:37:27;;;;;;;5.53;5.03;;;;;;;;;;2079601;28;20378;-55
2022/06/23 06:38:28;;;;;;;5.60;5.05;;;;;;;;;;2080257;28;20303;-56
2022/06/23 06:39:32;;;;;;;5.97;4.78;;;;;;;;;;2079879;28;20176;-55
2022/06/23 06:40:34;;;;;;;9.57;5.25;;;;;;;;;;2078506;28;20653;-54
2022/06/23 06:41:34;;;;;;;7.93;5.53;;;;;;;;;;2078462;28;20176;-55
2022/06/23 06:42:44;;;;;;;6.50;5.40;;;;;;;;;;2077841;28;20181;-56
2022/06/23 06:43:45;;;;;;;7.70;6.45;;;;;;;;;;2079139;28;20243;-52